createdAt,value
2022-12-09T00:00:16.792Z,1.72
2022-12-09T00:00:48.262Z,1.74
2022-12-09T00:01:22.269Z,1.76
2022-12-09T00:01:53.932Z,1.75
2022-12-09T00:02:25.729Z,1.77
2022-12-09T00:02:58.928Z,1.75
2022-12-09T00:03:30.794Z,1.75
2022-12-09T00:04:02.451Z,1.73
2022-12-09T00:04:34.546Z,1.72
2022-12-09T00:05:06.749Z,1.73
2022-12-09T00:05:41.081Z,1.72
2022-12-09T00:06:18.400Z,1.74
2022-12-09T00:06:49.844Z,1.75
2022-12-09T00:07:21.337Z,1.75
2022-12-09T00:07:52.778Z,1.75
2022-12-09T00:08:24.247Z,1.76
2022-12-09T00:08:57.589Z,1.77
2022-12-09T00:09:29.459Z,1.77
2022-12-09T00:10:00.953Z,1.78
2022-12-09T00:10:32.503Z,1.77
2022-12-09T00:11:04.120Z,1.78
2022-12-09T00:11:35.570Z,1.76
2022-12-09T00:12:07.018Z,1.77
2022-12-09T00:12:38.506Z,1.77
2022-12-09T00:13:10.142Z,1.79
2022-12-09T00:13:41.654Z,1.75
2022-12-09T00:14:13.149Z,1.77
2022-12-09T00:14:44.699Z,1.77
2022-12-09T00:15:16.117Z,1.77
2022-12-09T00:15:47.564Z,1.77
2022-12-09T00:16:19.919Z,1.80
2022-12-09T00:16:51.499Z,1.80
2022-12-09T00:17:23.301Z,1.80
2022-12-09T00:17:54.790Z,1.81
2022-12-09T00:18:26.412Z,1.80
2022-12-09T00:18:58.496Z,1.81
2022-12-09T00:19:29.944Z,1.79
2022-12-09T00:20:01.668Z,1.79
2022-12-09T00:20:33.086Z,1.80
2022-12-09T00:21:17.184Z,1.81
2022-12-09T00:21:48.788Z,1.81
2022-12-09T00:22:20.205Z,1.78
2022-12-09T00:22:51.832Z,1.79
2022-12-09T00:23:23.321Z,1.78
2022-12-09T00:23:57.048Z,1.81
2022-12-09T00:24:28.608Z,1.80
2022-12-09T00:25:00.015Z,1.78
2022-12-09T00:25:31.789Z,1.80
2022-12-09T00:26:03.419Z,1.80
2022-12-09T00:26:34.825Z,1.81
2022-12-09T00:27:06.136Z,1.79
2022-12-09T00:27:37.785Z,1.79
2022-12-09T00:28:09.471Z,1.78
2022-12-09T00:28:41.513Z,1.80
2022-12-09T00:29:13.179Z,1.80
2022-12-09T00:29:44.692Z,1.77
2022-12-09T00:30:16.256Z,1.79
2022-12-09T00:30:47.795Z,1.79
2022-12-09T00:31:24.380Z,1.80
2022-12-09T00:31:56.069Z,1.79
2022-12-09T00:32:27.719Z,1.79
2022-12-09T00:32:59.240Z,1.79
2022-12-09T00:33:31.852Z,1.79
2022-12-09T00:34:06.338Z,1.78
2022-12-09T00:34:37.755Z,1.80
2022-12-09T00:35:09.275Z,1.79
2022-12-09T00:35:40.646Z,1.79
2022-12-09T00:36:14.653Z,1.78
2022-12-09T00:36:46.061Z,1.77
2022-12-09T00:37:17.580Z,1.76
2022-12-09T00:37:49.103Z,1.79
2022-12-09T00:38:20.483Z,1.78
2022-12-09T00:38:54.013Z,1.77
2022-12-09T00:39:26.939Z,1.78
2022-12-09T00:39:58.397Z,1.77
2022-12-09T00:40:30.001Z,1.76
2022-12-09T00:41:01.450Z,1.77
2022-12-09T00:41:33.083Z,1.77
2022-12-09T00:42:04.513Z,1.75
2022-12-09T00:42:35.947Z,1.77
2022-12-09T00:43:26.222Z,1.77
2022-12-09T00:43:58.368Z,1.78
2022-12-09T00:44:30.168Z,1.77
2022-12-09T00:45:01.870Z,1.76
2022-12-09T00:45:33.429Z,1.74
2022-12-09T00:46:05.437Z,1.73
2022-12-09T00:46:37.136Z,1.77
2022-12-09T00:47:08.657Z,1.76
2022-12-09T00:47:40.158Z,1.76
2022-12-09T00:48:11.576Z,1.73
2022-12-09T00:48:45.499Z,1.77
2022-12-09T00:49:17.164Z,1.77
2022-12-09T00:49:48.675Z,1.76
2022-12-09T00:50:20.056Z,1.76
2022-12-09T00:50:51.574Z,1.76
2022-12-09T00:51:24.231Z,1.76
2022-12-09T00:51:55.671Z,1.78
2022-12-09T00:52:27.366Z,1.76
2022-12-09T00:52:58.791Z,1.75
2022-12-09T00:53:30.133Z,1.78
2022-12-09T00:54:01.667Z,1.79
2022-12-09T00:54:33.373Z,1.78
2022-12-09T00:55:05.382Z,1.79
2022-12-09T00:55:36.845Z,1.81
2022-12-09T00:56:08.312Z,1.81
2022-12-09T00:56:39.777Z,1.81
2022-12-09T00:57:11.312Z,1.81
2022-12-09T00:57:42.684Z,1.81
2022-12-09T00:58:14.507Z,1.82
2022-12-09T00:58:45.926Z,1.79
2022-12-09T00:59:17.469Z,1.79
2022-12-09T00:59:48.881Z,1.81
2022-12-09T01:00:20.377Z,1.80
2022-12-09T01:00:53.797Z,1.82
2022-12-09T01:01:25.529Z,1.81
2022-12-09T01:01:57.174Z,1.82
2022-12-09T01:02:47.663Z,1.82
2022-12-09T01:03:21.321Z,1.81
2022-12-09T01:03:52.980Z,1.81
2022-12-09T01:04:25.461Z,1.80
2022-12-09T01:04:57.218Z,1.80
2022-12-09T01:05:28.779Z,1.79
2022-12-09T01:06:00.336Z,1.81
2022-12-09T01:06:31.716Z,1.79
2022-12-09T01:07:03.392Z,1.78
2022-12-09T01:07:37.548Z,1.80
2022-12-09T01:08:10.590Z,1.81
2022-12-09T01:08:43.027Z,1.79
2022-12-09T01:09:14.799Z,1.80
2022-12-09T01:09:46.550Z,1.79
2022-12-09T01:10:18.262Z,1.81
2022-12-09T01:10:49.677Z,1.79
2022-12-09T01:11:24.003Z,1.80
2022-12-09T01:11:55.386Z,1.79
2022-12-09T01:12:26.802Z,1.79
2022-12-09T01:12:58.281Z,1.79
2022-12-09T01:13:29.673Z,1.78
2022-12-09T01:14:03.087Z,1.77
2022-12-09T01:14:34.626Z,1.77
2022-12-09T01:15:07.925Z,1.76
2022-12-09T01:15:42.218Z,1.75
2022-12-09T01:16:19.131Z,1.75
2022-12-09T01:16:50.801Z,1.70
2022-12-09T01:17:22.606Z,1.71
2022-12-09T01:17:54.199Z,1.70
2022-12-09T01:18:25.811Z,1.70
2022-12-09T01:19:00.546Z,1.68
2022-12-09T01:19:32.297Z,1.67
2022-12-09T01:20:09.500Z,1.67
2022-12-09T01:20:41.249Z,1.65
2022-12-09T01:21:13.557Z,1.65
2022-12-09T01:21:44.970Z,1.63
2022-12-09T01:22:16.436Z,1.64
2022-12-09T01:22:48.297Z,1.64
2022-12-09T01:23:19.703Z,1.59
2022-12-09T01:23:51.394Z,1.60
2022-12-09T01:24:22.976Z,1.59
2022-12-09T01:24:54.628Z,1.59
2022-12-09T01:25:26.368Z,1.59
2022-12-09T01:25:58.033Z,1.56
2022-12-09T01:26:29.436Z,1.56
2022-12-09T01:27:00.807Z,1.57
2022-12-09T01:27:32.785Z,1.56
2022-12-09T01:28:04.296Z,1.54
2022-12-09T01:28:37.227Z,1.54
2022-12-09T01:29:09.032Z,1.53
2022-12-09T01:29:40.596Z,1.51
2022-12-09T01:30:14.599Z,1.53
2022-12-09T01:30:46.088Z,1.50
2022-12-09T01:31:20.112Z,1.51
2022-12-09T01:31:51.714Z,1.50
2022-12-09T01:32:23.389Z,1.49
2022-12-09T01:32:54.872Z,1.49
2022-12-09T01:33:26.320Z,1.47
2022-12-09T01:33:57.677Z,1.47
2022-12-09T01:34:29.029Z,1.46
2022-12-09T01:35:00.531Z,1.43
2022-12-09T01:35:32.181Z,1.41
2022-12-09T01:36:05.994Z,1.44
2022-12-09T01:36:37.538Z,1.42
2022-12-09T01:37:09.038Z,1.41
2022-12-09T01:37:40.963Z,1.41
2022-12-09T01:38:12.507Z,1.39
2022-12-09T01:38:44.935Z,1.40
2022-12-09T01:39:16.833Z,1.40
2022-12-09T01:39:48.344Z,1.36
2022-12-09T01:40:19.801Z,1.37
2022-12-09T01:40:51.410Z,1.36
2022-12-09T01:41:23.557Z,1.35
2022-12-09T01:41:54.915Z,1.30
2022-12-09T01:42:27.341Z,1.32
2022-12-09T01:42:58.742Z,1.32
2022-12-09T01:43:30.124Z,1.29
2022-12-09T01:44:12.371Z,1.27
2022-12-09T01:45:24.427Z,1.26
2022-12-09T01:45:56.037Z,1.22
2022-12-09T01:46:27.524Z,1.22
2022-12-09T01:47:01.298Z,1.22
2022-12-09T01:47:32.918Z,1.20
2022-12-09T01:48:14.465Z,1.18
2022-12-09T01:48:47.220Z,1.19
2022-12-09T01:49:29.422Z,1.19
2022-12-09T01:50:00.947Z,1.19
2022-12-09T01:50:34.005Z,1.18
2022-12-09T01:51:12.408Z,1.19
2022-12-09T01:51:47.896Z,1.18
2022-12-09T01:52:23.218Z,1.17
2022-12-09T01:52:56.895Z,1.16
2022-12-09T01:53:34.557Z,1.17
2022-12-09T01:54:06.887Z,1.18
2022-12-09T01:54:41.433Z,1.16
2022-12-09T01:55:14.020Z,1.17
2022-12-09T01:55:46.337Z,1.17
2022-12-09T01:56:25.591Z,1.13
2022-12-09T01:56:57.392Z,1.14
2022-12-09T01:57:29.141Z,1.13
2022-12-09T01:58:00.834Z,1.12
2022-12-09T01:58:32.652Z,1.10
2022-12-09T01:59:10.522Z,1.12
2022-12-09T01:59:43.191Z,1.11
2022-12-09T02:00:15.107Z,1.10
2022-12-09T02:00:47.117Z,1.10
2022-12-09T02:01:18.986Z,1.07
2022-12-09T02:01:54.005Z,1.08
2022-12-09T02:02:28.729Z,1.11
2022-12-09T02:03:02.637Z,1.10
2022-12-09T02:03:34.802Z,1.10
2022-12-09T02:04:06.935Z,1.09
2022-12-09T02:04:41.371Z,1.10
2022-12-09T02:05:13.832Z,1.09
2022-12-09T02:05:45.788Z,1.06
2022-12-09T02:06:17.494Z,1.10
2022-12-09T02:06:48.929Z,1.11
2022-12-09T02:07:21.097Z,1.10
2022-12-09T02:07:52.942Z,1.12
2022-12-09T02:08:24.471Z,1.10
2022-12-09T02:08:57.182Z,1.11
2022-12-09T02:09:29.029Z,1.13
2022-12-09T02:10:02.579Z,1.14
2022-12-09T02:10:36.710Z,1.15
2022-12-09T02:11:26.613Z,1.15
2022-12-09T02:12:13.272Z,1.15
2022-12-09T02:12:54.531Z,1.17
2022-12-09T02:14:05.166Z,1.18
2022-12-09T02:14:45.407Z,1.18
2022-12-09T02:15:42.925Z,1.18
2022-12-09T02:16:20.164Z,1.16
2022-12-09T02:17:11.577Z,1.17
2022-12-09T02:17:54.426Z,1.16
2022-12-09T02:18:34.909Z,1.14
2022-12-09T02:19:35.640Z,1.17
2022-12-09T02:20:21.033Z,1.18
2022-12-09T02:21:05.752Z,1.18
2022-12-09T02:21:53.707Z,1.18
2022-12-09T02:22:31.914Z,1.18
2022-12-09T02:23:11.350Z,1.19
2022-12-09T02:23:53.145Z,1.20
2022-12-09T02:24:35.417Z,1.19
2022-12-09T02:25:12.728Z,1.21
2022-12-09T02:25:48.747Z,1.21
2022-12-09T02:26:41.857Z,1.22
2022-12-09T02:27:20.151Z,1.22
2022-12-09T02:28:29.032Z,1.23
2022-12-09T02:29:18.468Z,1.23
2022-12-09T02:30:05.626Z,1.23
2022-12-09T02:31:00.736Z,1.24
2022-12-09T02:32:00.394Z,1.24
2022-12-09T02:32:57.027Z,1.24
2022-12-09T02:33:44.317Z,1.23
2022-12-09T02:34:19.789Z,1.23
2022-12-09T02:34:59.054Z,1.24
2022-12-09T02:35:45.662Z,1.25
2022-12-09T02:36:18.816Z,1.22
2022-12-09T02:37:28.699Z,1.24
2022-12-09T02:38:07.883Z,1.25
2022-12-09T02:38:42.503Z,1.25
2022-12-09T02:39:14.350Z,1.25
2022-12-09T02:39:56.176Z,1.26
2022-12-09T02:40:34.052Z,1.26
2022-12-09T02:41:11.155Z,1.26
2022-12-09T02:41:46.914Z,1.27
2022-12-09T02:42:22.282Z,1.27
2022-12-09T02:42:55.405Z,1.27
2022-12-09T02:43:31.690Z,1.25
2022-12-09T02:44:10.647Z,1.29
2022-12-09T02:44:43.962Z,1.28
2022-12-09T02:45:16.949Z,1.28
2022-12-09T02:45:50.516Z,1.25
2022-12-09T02:46:23.865Z,1.28
2022-12-09T02:46:57.073Z,1.27
2022-12-09T02:47:32.016Z,1.27
2022-12-09T02:48:04.422Z,1.27
2022-12-09T02:48:41.150Z,1.27
2022-12-09T02:49:14.708Z,1.27
2022-12-09T02:49:50.616Z,1.25
2022-12-09T02:50:26.149Z,1.24
2022-12-09T02:50:58.754Z,1.22
2022-12-09T02:51:33.877Z,1.22
2022-12-09T02:52:06.553Z,1.20
2022-12-09T02:52:39.524Z,1.18
2022-12-09T02:53:13.698Z,1.16
2022-12-09T02:53:47.790Z,1.20
2022-12-09T02:54:20.518Z,1.18
2022-12-09T02:54:52.068Z,1.16
2022-12-09T02:55:23.733Z,1.16
2022-12-09T02:55:56.257Z,1.16
2022-12-09T02:56:28.014Z,1.14
2022-12-09T02:57:09.303Z,1.14
2022-12-09T02:57:41.180Z,1.12
2022-12-09T02:58:12.680Z,1.08
2022-12-09T02:58:44.037Z,1.12
2022-12-09T02:59:15.412Z,1.09
2022-12-09T02:59:46.897Z,1.08
2022-12-09T03:00:18.580Z,1.08
2022-12-09T03:00:52.289Z,1.10
2022-12-09T03:01:25.734Z,1.08
2022-12-09T03:02:03.387Z,1.08
2022-12-09T03:02:38.750Z,1.09
2022-12-09T03:03:16.710Z,1.07
2022-12-09T03:03:50.740Z,1.05
2022-12-09T03:04:27.048Z,1.04
2022-12-09T03:05:08.721Z,1.05
2022-12-09T03:05:54.088Z,1.03
2022-12-09T03:06:30.787Z,1.01
2022-12-09T03:07:20.016Z,0.98
2022-12-09T03:08:11.123Z,1.00
2022-12-09T03:09:07.913Z,0.97
2022-12-09T03:09:46.665Z,0.96
2022-12-09T03:10:25.848Z,0.94
2022-12-09T03:11:04.499Z,0.92
2022-12-09T03:11:37.684Z,0.89
2022-12-09T03:12:14.783Z,0.88
2022-12-09T03:12:56.616Z,0.89
2022-12-09T03:13:59.948Z,0.88
2022-12-09T03:14:45.979Z,0.87
2022-12-09T03:15:22.836Z,0.84
2022-12-09T03:16:02.794Z,0.82
2022-12-09T03:16:57.124Z,0.79
2022-12-09T03:17:34.872Z,0.82
2022-12-09T03:18:11.384Z,0.78
2022-12-09T03:18:47.205Z,0.79
2022-12-09T03:19:25.400Z,0.77
2022-12-09T03:20:00.934Z,0.74
2022-12-09T03:20:37.395Z,0.70
2022-12-09T03:21:09.224Z,0.70
2022-12-09T03:21:49.056Z,0.69
2022-12-09T03:22:25.482Z,0.68
2022-12-09T03:23:00.812Z,0.67
2022-12-09T03:23:35.553Z,0.67
2022-12-09T03:24:10.293Z,0.66
2022-12-09T03:24:52.133Z,0.66
2022-12-09T03:25:50.775Z,0.64
2022-12-09T03:26:26.906Z,0.63
2022-12-09T03:27:02.416Z,0.62
2022-12-09T03:27:38.433Z,0.63
2022-12-09T03:28:17.244Z,0.61
2022-12-09T03:28:51.682Z,0.57
2022-12-09T03:29:27.041Z,0.59
2022-12-09T03:30:01.849Z,0.56
2022-12-09T03:30:36.935Z,0.54
2022-12-09T03:31:13.367Z,0.52
2022-12-09T03:31:47.004Z,0.53
2022-12-09T03:32:23.776Z,0.51
2022-12-09T03:32:56.989Z,0.51
2022-12-09T03:33:30.799Z,0.51
2022-12-09T03:34:05.703Z,0.50
2022-12-09T03:34:42.408Z,0.51
2022-12-09T03:35:45.798Z,0.51
2022-12-09T03:36:19.007Z,0.49
2022-12-09T03:36:52.687Z,0.49
2022-12-09T03:37:24.343Z,0.49
2022-12-09T03:37:58.786Z,0.49
2022-12-09T03:38:35.230Z,0.50
2022-12-09T03:39:15.060Z,0.47
2022-12-09T03:39:49.544Z,0.48
2022-12-09T03:40:28.366Z,0.48
2022-12-09T03:41:13.689Z,0.49
2022-12-09T03:41:49.882Z,0.50
2022-12-09T03:42:31.066Z,0.49
2022-12-09T03:43:08.407Z,0.52
2022-12-09T03:43:48.148Z,0.50
2022-12-09T03:44:26.107Z,0.52
2022-12-09T03:45:02.894Z,0.52
2022-12-09T03:45:34.734Z,0.52
2022-12-09T03:46:06.458Z,0.52
2022-12-09T03:46:38.672Z,0.50
2022-12-09T03:47:10.755Z,0.52
2022-12-09T03:47:42.611Z,0.51
2022-12-09T03:48:14.905Z,0.48
2022-12-09T03:48:47.272Z,0.49
2022-12-09T03:49:19.000Z,0.52
2022-12-09T03:49:50.664Z,0.48
2022-12-09T03:50:25.181Z,0.52
2022-12-09T03:51:05.308Z,0.51
2022-12-09T03:51:46.131Z,0.51
2022-12-09T03:52:21.185Z,0.52
2022-12-09T03:53:06.331Z,0.50
2022-12-09T03:54:06.778Z,0.48
2022-12-09T03:54:44.786Z,0.46
2022-12-09T03:55:24.944Z,0.46
2022-12-09T03:56:08.468Z,0.46
2022-12-09T03:56:44.093Z,0.44
2022-12-09T03:57:19.189Z,0.42
2022-12-09T03:57:55.142Z,0.42
2022-12-09T03:58:31.537Z,0.39
2022-12-09T03:59:09.425Z,0.37
2022-12-09T03:59:43.886Z,0.37
2022-12-09T04:00:34.343Z,0.34
2022-12-09T04:01:06.130Z,0.36
2022-12-09T04:01:39.323Z,0.34
2022-12-09T04:02:11.231Z,0.32
2022-12-09T04:02:43.132Z,0.33
2022-12-09T04:03:19.016Z,0.33
2022-12-09T04:03:53.566Z,0.32
2022-12-09T04:04:27.938Z,0.32
2022-12-09T04:04:59.509Z,0.30
2022-12-09T04:05:31.274Z,0.30
2022-12-09T04:06:03.150Z,0.29
2022-12-09T04:06:35.654Z,0.30
2022-12-09T04:07:07.531Z,0.27
2022-12-09T04:07:39.494Z,0.28
2022-12-09T04:08:11.467Z,0.29
2022-12-09T04:08:43.315Z,0.29
2022-12-09T04:09:15.571Z,0.28
2022-12-09T04:09:47.191Z,0.28
2022-12-09T04:10:18.756Z,0.25
2022-12-09T04:10:50.182Z,0.30
2022-12-09T04:11:21.602Z,0.27
2022-12-09T04:11:53.091Z,0.27
2022-12-09T04:12:24.538Z,0.29
2022-12-09T04:12:56.413Z,0.27
2022-12-09T04:13:28.178Z,0.26
2022-12-09T04:14:00.439Z,0.26
2022-12-09T04:14:32.338Z,0.26
2022-12-09T04:15:04.669Z,0.25
2022-12-09T04:15:36.070Z,0.24
2022-12-09T04:16:07.847Z,0.22
2022-12-09T04:16:39.505Z,0.25
2022-12-09T04:17:12.203Z,0.24
2022-12-09T04:17:43.936Z,0.22
2022-12-09T04:18:15.478Z,0.23
2022-12-09T04:18:47.446Z,0.23
2022-12-09T04:19:19.000Z,0.20
2022-12-09T04:19:50.473Z,0.21
2022-12-09T04:20:22.043Z,0.20
2022-12-09T04:20:53.657Z,0.18
2022-12-09T04:21:25.076Z,0.18
2022-12-09T04:21:56.657Z,0.16
2022-12-09T04:22:29.550Z,0.18
2022-12-09T04:23:01.250Z,0.17
2022-12-09T04:23:35.550Z,0.15
2022-12-09T04:24:09.560Z,0.14
2022-12-09T04:24:41.182Z,0.12
2022-12-09T04:25:12.617Z,0.12
2022-12-09T04:25:44.035Z,0.13
2022-12-09T04:26:19.283Z,0.13
2022-12-09T04:26:50.818Z,0.11
2022-12-09T04:27:22.262Z,0.11
2022-12-09T04:27:54.159Z,0.10
2022-12-09T04:28:25.945Z,0.08
2022-12-09T04:28:57.455Z,0.07
2022-12-09T04:29:28.950Z,0.08
2022-12-09T04:30:00.896Z,0.07
2022-12-09T04:30:32.473Z,0.07
2022-12-09T04:31:04.290Z,0.08
2022-12-09T04:31:35.907Z,0.06
2022-12-09T04:32:07.967Z,0.05
2022-12-09T04:32:39.597Z,0.03
2022-12-09T04:33:11.356Z,0.06
2022-12-09T04:33:43.435Z,0.04
2022-12-09T04:34:15.002Z,0.05
2022-12-09T04:34:46.690Z,0.05
2022-12-09T04:35:18.471Z,0.03
2022-12-09T04:35:49.897Z,0.03
2022-12-09T04:36:21.820Z,0.02
2022-12-09T04:36:53.535Z,-0.01
2022-12-09T04:37:25.162Z,0.00
2022-12-09T04:37:56.662Z,-0.01
2022-12-09T04:38:28.231Z,-0.03
2022-12-09T04:38:59.892Z,-0.01
2022-12-09T04:39:31.509Z,-0.02
2022-12-09T04:40:07.954Z,-0.04
2022-12-09T04:40:39.769Z,-0.06
2022-12-09T04:41:11.887Z,-0.04
2022-12-09T04:41:43.652Z,-0.06
2022-12-09T04:42:15.143Z,-0.08
2022-12-09T04:42:46.845Z,-0.05
2022-12-09T04:43:18.259Z,-0.06
2022-12-09T04:43:49.751Z,-0.05
2022-12-09T04:44:21.404Z,-0.06
2022-12-09T04:44:53.142Z,-0.06
2022-12-09T04:45:24.983Z,-0.06
2022-12-09T04:46:05.866Z,-0.05
2022-12-09T04:46:37.567Z,-0.06
2022-12-09T04:47:09.163Z,-0.06
2022-12-09T04:47:41.348Z,-0.06
2022-12-09T04:48:12.833Z,-0.06
2022-12-09T04:48:44.619Z,-0.07
2022-12-09T04:49:16.196Z,-0.07
2022-12-09T04:49:47.936Z,-0.07
2022-12-09T04:50:19.645Z,-0.07
2022-12-09T04:50:51.056Z,-0.08
2022-12-09T04:51:22.493Z,-0.07
2022-12-09T04:51:53.956Z,-0.09
2022-12-09T04:52:25.660Z,-0.07
2022-12-09T04:52:57.284Z,-0.10
2022-12-09T04:53:29.420Z,-0.09
2022-12-09T04:54:01.170Z,-0.08
2022-12-09T04:54:33.943Z,-0.13
2022-12-09T04:55:06.334Z,-0.10
2022-12-09T04:55:37.784Z,-0.10
2022-12-09T04:56:14.803Z,-0.09
2022-12-09T04:56:46.375Z,-0.10
2022-12-09T04:57:18.639Z,-0.10
2022-12-09T04:57:50.043Z,-0.13
2022-12-09T04:58:21.632Z,-0.10
2022-12-09T04:58:53.125Z,-0.11
2022-12-09T04:59:24.555Z,-0.11
2022-12-09T04:59:56.124Z,-0.09
2022-12-09T05:00:28.025Z,-0.10
2022-12-09T05:01:04.683Z,-0.12
2022-12-09T05:01:36.391Z,-0.12
2022-12-09T05:02:08.057Z,-0.11
2022-12-09T05:02:40.278Z,-0.12
2022-12-09T05:03:12.123Z,-0.12
2022-12-09T05:03:44.327Z,-0.12
2022-12-09T05:04:16.408Z,-0.15
2022-12-09T05:04:48.459Z,-0.16
2022-12-09T05:05:20.170Z,-0.17
2022-12-09T05:05:52.156Z,-0.16
2022-12-09T05:06:24.431Z,-0.17
2022-12-09T05:06:56.413Z,-0.17
2022-12-09T05:07:29.785Z,-0.16
2022-12-09T05:08:01.443Z,-0.16
2022-12-09T05:08:33.687Z,-0.15
2022-12-09T05:09:05.961Z,-0.19
2022-12-09T05:09:37.810Z,-0.18
2022-12-09T05:10:10.030Z,-0.17
2022-12-09T05:10:46.710Z,-0.17
2022-12-09T05:11:20.044Z,-0.16
2022-12-09T05:11:52.510Z,-0.17
2022-12-09T05:12:25.335Z,-0.16
2022-12-09T05:12:56.838Z,-0.19
2022-12-09T05:13:28.607Z,-0.18
2022-12-09T05:14:00.540Z,-0.18
2022-12-09T05:14:32.343Z,-0.18
2022-12-09T05:15:04.131Z,-0.19
2022-12-09T05:15:38.286Z,-0.19
2022-12-09T05:16:16.010Z,-0.19
2022-12-09T05:16:48.884Z,-0.24
2022-12-09T05:17:20.557Z,-0.22
2022-12-09T05:17:52.641Z,-0.27
2022-12-09T05:18:24.317Z,-0.24
2022-12-09T05:18:56.219Z,-0.22
2022-12-09T05:19:28.006Z,-0.22
2022-12-09T05:19:59.748Z,-0.23
2022-12-09T05:20:31.210Z,-0.25
2022-12-09T05:21:07.571Z,-0.26
2022-12-09T05:21:39.079Z,-0.24
2022-12-09T05:22:10.645Z,-0.26
2022-12-09T05:22:42.365Z,-0.26
2022-12-09T05:23:13.776Z,-0.25
2022-12-09T05:23:45.769Z,-0.25
2022-12-09T05:24:17.382Z,-0.26
2022-12-09T05:24:49.193Z,-0.27
2022-12-09T05:25:20.939Z,-0.26
2022-12-09T05:25:52.417Z,-0.28
2022-12-09T05:26:24.314Z,-0.28
2022-12-09T05:26:55.957Z,-0.27
2022-12-09T05:27:27.664Z,-0.27
2022-12-09T05:27:59.458Z,-0.30
2022-12-09T05:28:31.346Z,-0.28
2022-12-09T05:29:03.614Z,-0.28
2022-12-09T05:29:35.179Z,-0.29
2022-12-09T05:30:07.798Z,-0.28
2022-12-09T05:30:39.805Z,-0.30
2022-12-09T05:31:17.152Z,-0.27
2022-12-09T05:31:49.328Z,-0.29
2022-12-09T05:32:21.522Z,-0.30
2022-12-09T05:32:53.099Z,-0.29
2022-12-09T05:33:25.097Z,-0.29
2022-12-09T05:33:57.005Z,-0.30
2022-12-09T05:34:29.145Z,-0.29
2022-12-09T05:35:00.893Z,-0.32
2022-12-09T05:35:32.670Z,-0.33
2022-12-09T05:36:09.944Z,-0.31
2022-12-09T05:36:41.488Z,-0.33
2022-12-09T05:37:15.368Z,-0.30
2022-12-09T05:37:46.958Z,-0.30
2022-12-09T05:38:18.484Z,-0.31
2022-12-09T05:38:51.394Z,-0.31
2022-12-09T05:39:22.855Z,-0.30
2022-12-09T05:39:54.630Z,-0.31
2022-12-09T05:40:26.403Z,-0.31
2022-12-09T05:41:01.258Z,-0.31
2022-12-09T05:41:33.131Z,-0.31
2022-12-09T05:42:04.781Z,-0.31
2022-12-09T05:42:41.101Z,-0.31
2022-12-09T05:43:13.868Z,-0.31
2022-12-09T05:43:45.865Z,-0.31
2022-12-09T05:44:17.702Z,-0.31
2022-12-09T05:44:49.316Z,-0.31
2022-12-09T05:45:20.823Z,-0.31
2022-12-09T05:45:52.372Z,-0.31
2022-12-09T05:46:24.295Z,-0.34
2022-12-09T05:46:56.311Z,-0.35
2022-12-09T05:47:29.278Z,-0.36
2022-12-09T05:48:01.512Z,-0.36
2022-12-09T05:48:33.468Z,-0.36
2022-12-09T05:49:05.715Z,-0.37
2022-12-09T05:49:39.021Z,-0.39
2022-12-09T05:50:12.086Z,-0.38
2022-12-09T05:50:43.955Z,-0.40
2022-12-09T05:51:21.723Z,-0.37
2022-12-09T05:51:54.296Z,-0.36
2022-12-09T05:52:25.787Z,-0.38
2022-12-09T05:52:57.503Z,-0.36
2022-12-09T05:53:29.132Z,-0.36
2022-12-09T05:54:02.908Z,-0.33
2022-12-09T05:54:34.655Z,-0.33
2022-12-09T05:55:08.758Z,-0.32
2022-12-09T05:55:41.878Z,-0.32
2022-12-09T05:56:18.833Z,-0.31
2022-12-09T05:56:50.649Z,-0.32
2022-12-09T05:57:22.834Z,-0.34
2022-12-09T05:57:55.096Z,-0.34
2022-12-09T05:58:27.013Z,-0.34
2022-12-09T05:58:58.912Z,-0.35
2022-12-09T05:59:30.634Z,-0.32
2022-12-09T06:00:02.995Z,-0.33
2022-12-09T06:00:34.691Z,-0.31
2022-12-09T06:01:07.280Z,-0.32
2022-12-09T06:01:39.222Z,-0.31
2022-12-09T06:02:11.011Z,-0.31
2022-12-09T06:02:42.892Z,-0.33
2022-12-09T06:03:15.394Z,-0.32
2022-12-09T06:03:48.521Z,-0.34
2022-12-09T06:04:20.513Z,-0.33
2022-12-09T06:04:52.877Z,-0.33
2022-12-09T06:05:24.565Z,-0.34
2022-12-09T06:05:56.309Z,-0.33
2022-12-09T06:06:30.359Z,-0.33
2022-12-09T06:07:02.850Z,-0.36
2022-12-09T06:07:35.706Z,-0.35
2022-12-09T06:08:08.007Z,-0.35
2022-12-09T06:08:41.129Z,-0.35
2022-12-09T06:09:13.326Z,-0.37
2022-12-09T06:09:45.123Z,-0.36
2022-12-09T06:10:17.613Z,-0.37
2022-12-09T06:10:49.576Z,-0.37
2022-12-09T06:11:22.032Z,-0.37
2022-12-09T06:11:53.641Z,-0.37
2022-12-09T06:12:25.182Z,-0.36
2022-12-09T06:12:57.809Z,-0.35
2022-12-09T06:13:29.328Z,-0.38
2022-12-09T06:14:00.899Z,-0.36
2022-12-09T06:14:32.544Z,-0.36
2022-12-09T06:15:05.016Z,-0.37
2022-12-09T06:15:38.580Z,-0.37
2022-12-09T06:16:11.361Z,-0.34
2022-12-09T06:16:43.286Z,-0.33
2022-12-09T06:17:15.034Z,-0.35
2022-12-09T06:17:46.694Z,-0.36
2022-12-09T06:18:18.650Z,-0.33
2022-12-09T06:18:50.448Z,-0.33
2022-12-09T06:19:22.568Z,-0.33
2022-12-09T06:19:54.365Z,-0.33
2022-12-09T06:20:25.845Z,-0.36
2022-12-09T06:20:57.329Z,-0.37
2022-12-09T06:21:29.274Z,-0.34
2022-12-09T06:22:00.785Z,-0.37
2022-12-09T06:22:32.637Z,-0.38
2022-12-09T06:23:04.827Z,-0.36
2022-12-09T06:23:38.012Z,-0.36
2022-12-09T06:24:10.573Z,-0.38
2022-12-09T06:24:42.207Z,-0.42
2022-12-09T06:25:13.804Z,-0.42
2022-12-09T06:25:46.396Z,-0.49
2022-12-09T06:26:21.570Z,-0.48
2022-12-09T06:26:54.570Z,-0.50
2022-12-09T06:27:26.543Z,-0.53
2022-12-09T06:27:58.021Z,-0.51
2022-12-09T06:28:29.679Z,-0.52
2022-12-09T06:29:01.246Z,-0.50
2022-12-09T06:29:32.742Z,-0.47
2022-12-09T06:30:05.274Z,-0.45
2022-12-09T06:30:36.748Z,-0.45
2022-12-09T06:31:08.735Z,-0.42
2022-12-09T06:31:40.742Z,-0.42
2022-12-09T06:32:12.284Z,-0.43
2022-12-09T06:32:43.942Z,-0.42
2022-12-09T06:33:45.001Z,-0.42
2022-12-09T06:34:07.036Z,-0.42
2022-12-09T06:34:39.274Z,-0.39
2022-12-09T06:35:11.217Z,-0.40
2022-12-09T06:35:43.206Z,-0.40
2022-12-09T06:36:15.019Z,-0.38
2022-12-09T06:36:46.838Z,-0.40
2022-12-09T06:37:18.370Z,-0.38
2022-12-09T06:37:52.987Z,-0.34
2022-12-09T06:38:24.433Z,-0.34
2022-12-09T06:38:57.936Z,-0.35
2022-12-09T06:39:30.826Z,-0.35
2022-12-09T06:40:02.624Z,-0.36
2022-12-09T06:40:34.106Z,-0.35
2022-12-09T06:41:08.137Z,-0.35
2022-12-09T06:41:43.101Z,-0.33
2022-12-09T06:42:15.018Z,-0.36
2022-12-09T06:42:46.904Z,-0.32
2022-12-09T06:43:18.462Z,-0.31
2022-12-09T06:43:50.235Z,-0.30
2022-12-09T06:44:23.778Z,-0.31
2022-12-09T06:44:56.327Z,-0.31
2022-12-09T06:45:28.187Z,-0.29
2022-12-09T06:45:59.586Z,-0.29
2022-12-09T06:46:31.375Z,-0.28
2022-12-09T06:47:03.248Z,-0.28
2022-12-09T06:47:34.871Z,-0.28
2022-12-09T06:48:07.043Z,-0.29
2022-12-09T06:48:38.751Z,-0.30
2022-12-09T06:49:10.482Z,-0.28
2022-12-09T06:49:42.095Z,-0.26
2022-12-09T06:50:14.134Z,-0.28
2022-12-09T06:50:46.458Z,-0.31
2022-12-09T06:51:19.023Z,-0.28
2022-12-09T06:51:50.620Z,-0.29
2022-12-09T06:52:22.221Z,-0.30
2022-12-09T06:52:53.868Z,-0.30
2022-12-09T06:53:25.428Z,-0.30
2022-12-09T06:53:57.277Z,-0.30
2022-12-09T06:54:29.071Z,-0.29
2022-12-09T06:55:00.732Z,-0.28
2022-12-09T06:55:32.376Z,-0.28
2022-12-09T06:56:11.439Z,-0.27
2022-12-09T06:56:44.234Z,-0.26
2022-12-09T06:57:15.622Z,-0.26
2022-12-09T06:57:47.455Z,-0.26
2022-12-09T06:58:19.255Z,-0.26
2022-12-09T06:58:51.338Z,-0.26
2022-12-09T06:59:23.046Z,-0.26
2022-12-09T06:59:54.500Z,-0.25
2022-12-09T07:00:26.216Z,-0.26
2022-12-09T07:01:13.772Z,-0.24
2022-12-09T07:01:45.777Z,-0.24
2022-12-09T07:02:17.905Z,-0.24
2022-12-09T07:02:49.645Z,-0.23
2022-12-09T07:03:21.830Z,-0.23
2022-12-09T07:03:55.624Z,-0.24
2022-12-09T07:04:28.010Z,-0.22
2022-12-09T07:04:59.880Z,-0.22
2022-12-09T07:05:32.362Z,-0.20
2022-12-09T07:06:04.527Z,-0.21
2022-12-09T07:06:39.215Z,-0.19
2022-12-09T07:07:11.441Z,-0.20
2022-12-09T07:07:43.426Z,-0.22
2022-12-09T07:08:14.977Z,-0.22
2022-12-09T07:08:47.013Z,-0.19
2022-12-09T07:09:22.086Z,-0.19
2022-12-09T07:09:54.150Z,-0.21
2022-12-09T07:10:25.927Z,-0.20
2022-12-09T07:10:57.636Z,-0.19
2022-12-09T07:11:30.239Z,-0.18
2022-12-09T07:12:02.310Z,-0.18
2022-12-09T07:12:34.070Z,-0.18
2022-12-09T07:13:05.539Z,-0.17
2022-12-09T07:13:36.952Z,-0.20
2022-12-09T07:14:10.026Z,-0.18
2022-12-09T07:14:41.815Z,-0.18
2022-12-09T07:15:14.512Z,-0.18
2022-12-09T07:15:46.734Z,-0.19
2022-12-09T07:16:18.611Z,-0.18
2022-12-09T07:16:50.522Z,-0.19
2022-12-09T07:17:22.400Z,-0.18
2022-12-09T07:17:54.235Z,-0.19
2022-12-09T07:18:25.938Z,-0.17
2022-12-09T07:18:57.725Z,-0.18
2022-12-09T07:19:30.526Z,-0.18
2022-12-09T07:20:07.121Z,-0.17
2022-12-09T07:20:39.087Z,-0.16
2022-12-09T07:21:13.286Z,-0.17
2022-12-09T07:21:44.978Z,-0.17
2022-12-09T07:22:16.690Z,-0.17
2022-12-09T07:22:48.413Z,-0.19
2022-12-09T07:23:20.155Z,-0.19
2022-12-09T07:23:52.011Z,-0.18
2022-12-09T07:24:24.317Z,-0.18
2022-12-09T07:24:55.996Z,-0.18
2022-12-09T07:25:27.876Z,-0.20
2022-12-09T07:26:02.375Z,-0.20